createdAt,value
2018-08-06T00:04:27.213Z,99.90
2018-08-06T00:07:02.974Z,99.90
2018-08-06T00:09:38.692Z,99.90
2018-08-06T00:12:13.839Z,99.90
2018-08-06T00:14:49.800Z,99.90
2018-08-06T00:17:24.599Z,99.90
2018-08-06T00:20:00.190Z,99.90
2018-08-06T00:22:35.895Z,99.90
2018-08-06T00:25:12.484Z,99.90
2018-08-06T00:27:49.568Z,99.90
2018-08-06T00:30:27.143Z,99.90
2018-08-06T00:33:03.217Z,99.90
2018-08-06T00:35:38.916Z,99.90
2018-08-06T00:38:15.848Z,99.90
2018-08-06T00:40:51.086Z,99.90
2018-08-06T00:43:30.729Z,99.90
2018-08-06T00:46:06.592Z,99.90
2018-08-06T00:48:42.739Z,99.90
2018-08-06T00:51:18.387Z,99.90
2018-08-06T00:53:55.475Z,99.90
2018-08-06T00:56:31.219Z,99.90
2018-08-06T00:59:07.079Z,99.90
2018-08-06T01:01:44.853Z,99.90
2018-08-06T01:04:20.758Z,99.90
2018-08-06T01:06:57.915Z,99.90
2018-08-06T01:09:33.647Z,99.90
2018-08-06T01:14:46.398Z,99.90
2018-08-06T01:17:21.772Z,99.90
2018-08-06T01:19:58.083Z,99.90
2018-08-06T01:22:33.834Z,99.90
2018-08-06T01:25:10.311Z,99.90
2018-08-06T01:27:46.065Z,99.90
2018-08-06T01:30:21.371Z,99.90
2018-08-06T01:32:58.165Z,99.90
2018-08-06T01:35:33.814Z,99.90
2018-08-06T01:38:09.890Z,99.90
2018-08-06T01:40:46.579Z,99.90
2018-08-06T01:43:21.875Z,99.90
2018-08-06T01:46:00.621Z,99.90
2018-08-06T01:48:35.949Z,99.90
2018-08-06T01:51:13.845Z,99.90
2018-08-06T01:53:51.029Z,99.90
2018-08-06T01:59:03.761Z,99.90
2018-08-06T02:01:39.914Z,99.90
2018-08-06T02:04:15.766Z,99.90
2018-08-06T02:06:51.018Z,99.90
2018-08-06T02:09:27.378Z,99.90
2018-08-06T02:14:39.484Z,99.90
2018-08-06T02:17:15.337Z,99.90
2018-08-06T02:19:50.784Z,99.90
2018-08-06T02:22:27.025Z,99.90
2018-08-06T02:25:02.690Z,99.90
2018-08-06T02:30:15.747Z,99.90
2018-08-06T02:32:51.494Z,99.90
2018-08-06T02:35:28.354Z,99.90
2018-08-06T02:38:04.725Z,99.90
2018-08-06T02:40:41.067Z,99.90
2018-08-06T02:43:17.565Z,99.90
2018-08-06T02:45:54.626Z,99.90
2018-08-06T02:48:31.298Z,99.90
2018-08-06T02:51:06.334Z,99.90
2018-08-06T02:53:42.919Z,99.90
2018-08-06T02:56:19.231Z,99.90
2018-08-06T03:01:30.322Z,99.90
2018-08-06T03:04:06.174Z,99.90
2018-08-06T03:06:43.155Z,99.90
2018-08-06T03:09:18.839Z,99.90
2018-08-06T03:11:55.802Z,99.90
2018-08-06T03:14:31.574Z,99.90
2018-08-06T03:17:07.185Z,99.90
2018-08-06T03:19:43.365Z,99.90
2018-08-06T03:22:19.127Z,99.90
2018-08-06T03:24:55.089Z,99.90
2018-08-06T03:27:30.318Z,99.90
2018-08-06T03:30:09.451Z,99.90
2018-08-06T03:32:47.345Z,99.90
2018-08-06T03:35:23.814Z,99.90
2018-08-06T03:38:00.075Z,99.90
2018-08-06T03:40:36.384Z,99.90
2018-08-06T03:43:13.302Z,99.90
2018-08-06T03:45:50.514Z,99.90
2018-08-06T03:48:27.058Z,99.90
2018-08-06T03:51:07.733Z,99.90
2018-08-06T03:53:43.787Z,99.90
2018-08-06T03:56:21.046Z,99.90
2018-08-06T03:58:56.617Z,99.90
2018-08-06T04:01:32.541Z,99.90
2018-08-06T04:04:08.330Z,99.90
2018-08-06T04:06:44.080Z,99.90
2018-08-06T04:09:20.861Z,99.90
2018-08-06T04:14:25.559Z,99.90
2018-08-06T04:17:00.731Z,99.90
2018-08-06T04:19:39.175Z,99.90
2018-08-06T04:22:15.094Z,99.90
2018-08-06T04:24:51.577Z,99.90
2018-08-06T04:27:27.207Z,99.90
2018-08-06T04:30:02.960Z,99.90
2018-08-06T04:32:39.441Z,99.90
2018-08-06T04:35:15.594Z,99.90
2018-08-06T04:37:51.757Z,99.90
2018-08-06T04:43:01.818Z,99.90
2018-08-06T04:45:38.693Z,99.90
2018-08-06T04:48:14.647Z,99.90
2018-08-06T04:50:52.850Z,99.90
2018-08-06T04:53:28.518Z,99.90
2018-08-06T04:56:05.602Z,99.90
2018-08-06T04:58:41.430Z,99.90
2018-08-06T05:01:17.436Z,99.90
2018-08-06T05:03:53.543Z,99.90
2018-08-06T05:06:30.514Z,99.90
2018-08-06T05:09:08.911Z,99.90
2018-08-06T05:11:44.503Z,99.90
2018-08-06T05:14:21.679Z,99.90
2018-08-06T05:16:57.304Z,99.90
2018-08-06T05:19:33.076Z,99.90
2018-08-06T05:22:08.711Z,99.90
2018-08-06T05:24:44.503Z,99.90
2018-08-06T05:27:20.328Z,99.90
2018-08-06T05:29:55.527Z,99.90
2018-08-06T05:32:30.882Z,99.90
2018-08-06T05:35:07.742Z,99.90
2018-08-06T05:40:18.741Z,99.90
2018-08-06T05:42:53.663Z,99.90
2018-08-06T05:45:28.829Z,99.90
2018-08-06T05:48:03.651Z,99.90
2018-08-06T05:50:39.865Z,99.90
2018-08-06T05:53:15.006Z,99.90
2018-08-06T05:55:52.346Z,99.90
2018-08-06T05:58:27.804Z,99.90
2018-08-06T06:01:04.360Z,99.90
2018-08-06T06:03:41.232Z,99.90
2018-08-06T06:06:16.978Z,99.90
2018-08-06T06:08:53.156Z,99.90
2018-08-06T06:11:28.990Z,99.90
2018-08-06T06:14:06.892Z,99.90
2018-08-06T06:16:42.622Z,99.90
2018-08-06T06:19:18.654Z,99.90
2018-08-06T06:21:55.270Z,99.90
2018-08-06T06:24:30.926Z,99.90
2018-08-06T06:27:08.302Z,99.90
2018-08-06T06:29:44.962Z,99.90
2018-08-06T06:32:21.855Z,99.90
2018-08-06T06:34:58.488Z,99.90
2018-08-06T06:37:34.554Z,99.90
2018-08-06T06:40:10.532Z,99.90
2018-08-06T06:42:46.180Z,99.90
2018-08-06T06:47:57.149Z,99.90
2018-08-06T06:50:32.170Z,99.90
2018-08-06T06:53:08.226Z,99.90
2018-08-06T06:55:44.723Z,99.90
2018-08-06T06:58:20.440Z,99.90
2018-08-06T07:00:57.658Z,99.90
2018-08-06T07:03:33.307Z,99.90
2018-08-06T07:08:45.824Z,99.90
2018-08-06T07:11:23.120Z,99.90
2018-08-06T07:13:59.295Z,99.90
2018-08-06T07:16:35.626Z,99.90
2018-08-06T07:19:12.121Z,99.90
2018-08-06T07:21:47.308Z,99.90
2018-08-06T07:24:24.234Z,99.90
2018-08-06T07:26:59.877Z,99.90
2018-08-06T07:29:36.255Z,99.90
2018-08-06T07:32:13.209Z,99.90
2018-08-06T07:34:49.185Z,99.90
2018-08-06T07:37:26.670Z,99.90
2018-08-06T07:40:02.371Z,99.90
2018-08-06T07:42:38.054Z,99.90
2018-08-06T07:45:18.263Z,99.90
2018-08-06T07:47:53.549Z,99.90
2018-08-06T07:50:29.806Z,99.90
2018-08-06T07:53:05.876Z,99.90
2018-08-06T07:55:42.095Z,99.90
2018-08-06T07:58:18.546Z,99.90
2018-08-06T08:00:54.829Z,99.90
2018-08-06T08:03:29.991Z,99.90
2018-08-06T08:06:05.868Z,99.90
2018-08-06T08:08:42.023Z,99.90
2018-08-06T08:11:17.604Z,99.90
2018-08-06T08:13:55.604Z,99.90
2018-08-06T08:19:06.542Z,99.90
2018-08-06T08:21:42.396Z,99.90
2018-08-06T08:24:18.047Z,99.90
2018-08-06T08:26:53.875Z,99.90
2018-08-06T08:29:30.894Z,99.90
2018-08-06T08:32:07.353Z,99.90
2018-08-06T08:34:43.987Z,99.90
2018-08-06T08:37:19.549Z,99.90
2018-08-06T08:39:56.302Z,99.90
2018-08-06T08:42:32.180Z,99.90
2018-08-06T08:45:14.106Z,99.90
2018-08-06T08:47:49.844Z,99.90
2018-08-06T08:50:26.786Z,99.90
2018-08-06T08:53:02.627Z,99.90
2018-08-06T08:55:39.449Z,99.90
2018-08-06T08:58:14.977Z,99.90
2018-08-06T09:00:52.069Z,99.90
2018-08-06T09:03:28.269Z,99.90
2018-08-06T09:06:03.879Z,99.90
2018-08-06T09:08:41.965Z,99.90
2018-08-06T09:11:18.141Z,99.90
2018-08-06T09:13:54.437Z,99.90
2018-08-06T09:16:31.067Z,99.90
2018-08-06T09:19:09.378Z,99.90
2018-08-06T09:21:45.736Z,99.90
2018-08-06T09:24:22.310Z,99.90
2018-08-06T09:26:57.967Z,99.90
2018-08-06T09:29:33.907Z,99.90
2018-08-06T09:32:10.499Z,99.90
2018-08-06T09:34:46.231Z,99.90
2018-08-06T09:37:23.100Z,99.90
2018-08-06T09:39:59.178Z,99.90
2018-08-06T09:42:35.130Z,99.90
2018-08-06T09:45:13.014Z,99.90
2018-08-06T09:47:50.836Z,99.90
2018-08-06T09:50:27.377Z,99.90
2018-08-06T09:53:02.820Z,99.90
2018-08-06T09:55:39.376Z,99.90
2018-08-06T09:58:14.654Z,99.90
2018-08-06T10:00:55.389Z,99.90
2018-08-06T10:03:31.449Z,99.90
2018-08-06T10:06:07.478Z,99.90
2018-08-06T10:08:42.748Z,99.90
2018-08-06T10:11:18.594Z,99.90
2018-08-06T10:13:54.456Z,99.90
2018-08-06T10:16:30.104Z,99.90
2018-08-06T10:19:06.547Z,99.90
2018-08-06T10:21:42.533Z,99.90
2018-08-06T10:24:17.871Z,99.50
2018-08-06T10:26:53.151Z,99.70
2018-08-06T10:29:28.054Z,99.90
2018-08-06T10:32:03.489Z,99.30
2018-08-06T10:34:39.341Z,98.70
2018-08-06T10:39:51.863Z,98.50
2018-08-06T10:42:27.164Z,98.00
2018-08-06T10:45:02.865Z,97.40
2018-08-06T10:47:39.713Z,96.90
2018-08-06T10:50:14.965Z,97.80
2018-08-06T10:52:52.461Z,93.00
2018-08-06T10:55:28.195Z,92.90
2018-08-06T11:00:39.741Z,93.20
2018-08-06T11:03:15.648Z,93.20
2018-08-06T11:05:52.024Z,92.70
2018-08-06T11:08:27.157Z,92.00
2018-08-06T11:11:03.014Z,93.60
2018-08-06T11:13:39.265Z,92.60
2018-08-06T11:16:15.323Z,92.00
2018-08-06T11:18:51.058Z,90.70
2018-08-06T11:24:01.652Z,90.60
2018-08-06T11:26:37.298Z,91.30
2018-08-06T11:29:13.972Z,90.30
2018-08-06T11:31:49.492Z,91.40
2018-08-06T11:34:26.453Z,91.40
2018-08-06T11:37:03.566Z,89.80
2018-08-06T11:39:40.980Z,90.40
2018-08-06T11:42:17.017Z,90.60
2018-08-06T11:44:53.427Z,88.70
2018-08-06T11:47:29.234Z,85.40
2018-08-06T11:50:05.606Z,82.80
2018-08-06T11:52:41.034Z,83.30
2018-08-06T11:55:16.489Z,82.20
2018-08-06T11:57:52.613Z,80.40
2018-08-06T12:03:04.781Z,78.60
2018-08-06T12:05:41.092Z,77.50
2018-08-06T12:08:16.356Z,82.60
2018-08-06T12:10:52.605Z,78.10
2018-08-06T12:13:27.723Z,76.20
2018-08-06T12:16:03.314Z,74.40
2018-08-06T12:18:39.016Z,77.50
2018-08-06T12:21:15.817Z,75.40
2018-08-06T12:23:52.307Z,71.90
2018-08-06T12:26:27.949Z,73.80
2018-08-06T12:29:03.801Z,72.70
2018-08-06T12:31:39.999Z,73.50
2018-08-06T12:34:15.807Z,70.40
2018-08-06T12:36:52.668Z,76.40
2018-08-06T12:39:29.238Z,74.00
2018-08-06T12:42:06.113Z,64.40
2018-08-06T12:44:42.537Z,68.10
2018-08-06T12:47:17.984Z,65.40
2018-08-06T12:49:53.673Z,63.70
2018-08-06T12:52:30.441Z,63.90
2018-08-06T12:55:07.106Z,61.30
2018-08-06T12:57:44.271Z,59.60
2018-08-06T13:00:23.736Z,61.10
2018-08-06T13:02:58.648Z,65.40
2018-08-06T13:05:35.962Z,64.20
2018-08-06T13:10:46.718Z,60.90
2018-08-06T13:13:22.414Z,61.30
2018-08-06T13:15:57.615Z,58.00
2018-08-06T13:21:09.192Z,58.60
2018-08-06T13:23:44.630Z,60.50
2018-08-06T13:28:56.586Z,59.10
2018-08-06T13:34:07.471Z,56.80
2018-08-06T13:36:43.874Z,58.50
2018-08-06T13:39:20.796Z,56.60
2018-08-06T13:41:57.269Z,54.40
2018-08-06T13:44:33.369Z,54.80
2018-08-06T13:47:09.968Z,55.00
2018-08-06T13:49:45.433Z,53.80
2018-08-06T13:52:22.204Z,53.70
2018-08-06T13:54:57.331Z,55.40
2018-08-06T14:02:48.393Z,55.50
2018-08-06T14:05:23.953Z,51.70
2018-08-06T14:07:59.095Z,54.40
2018-08-06T14:10:34.578Z,53.70
2018-08-06T14:13:09.542Z,53.40
2018-08-06T14:15:45.604Z,52.90
2018-08-06T14:18:20.836Z,53.30
2018-08-06T14:23:31.785Z,53.80
2018-08-06T14:26:06.944Z,55.80
2018-08-06T14:28:42.680Z,54.70
2018-08-06T14:31:18.503Z,55.50
2018-08-06T14:33:55.622Z,56.50
2018-08-06T14:36:31.272Z,53.50
2018-08-06T14:41:44.509Z,54.30
2018-08-06T14:44:21.481Z,55.20
2018-08-06T14:47:00.312Z,53.20
2018-08-06T14:49:36.989Z,52.00
2018-08-06T14:52:13.013Z,53.80
2018-08-06T14:54:49.095Z,53.20
2018-08-06T14:57:25.196Z,52.00
2018-08-06T15:00:00.440Z,52.10
2018-08-06T15:02:36.369Z,52.30
2018-08-06T15:05:11.611Z,51.10
2018-08-06T15:07:47.039Z,52.10
2018-08-06T15:12:58.744Z,53.20
2018-08-06T15:15:34.455Z,53.20
2018-08-06T15:18:10.127Z,52.90
2018-08-06T15:20:45.614Z,53.10
2018-08-06T15:23:22.596Z,53.00
2018-08-06T15:25:58.730Z,51.20
2018-08-06T15:28:35.070Z,52.70
2018-08-06T15:31:09.890Z,52.60
2018-08-06T15:33:44.642Z,51.90
2018-08-06T15:36:19.367Z,52.20
2018-08-06T15:38:54.278Z,51.90
2018-08-06T15:41:29.381Z,53.10
2018-08-06T15:44:04.138Z,52.80
2018-08-06T15:46:39.354Z,51.50
2018-08-06T15:49:13.893Z,51.50
2018-08-06T15:51:48.715Z,53.50
2018-08-06T15:54:23.176Z,52.10
2018-08-06T15:59:32.769Z,51.50
2018-08-06T16:02:08.237Z,54.30
2018-08-06T16:04:42.741Z,52.20
2018-08-06T16:07:17.342Z,54.00
2018-08-06T16:09:52.449Z,53.00
2018-08-06T16:12:26.984Z,53.50
2018-08-06T16:15:01.745Z,53.20
2018-08-06T16:17:36.995Z,52.00
2018-08-06T16:20:13.300Z,53.50
2018-08-06T16:22:48.028Z,55.30
2018-08-06T16:25:23.025Z,54.40
2018-08-06T16:27:57.741Z,53.20
2018-08-06T16:30:32.656Z,53.80
2018-08-06T16:33:07.291Z,55.00
2018-08-06T16:35:41.829Z,53.40
2018-08-06T16:38:16.977Z,54.80
2018-08-06T16:40:52.402Z,53.70
2018-08-06T16:46:02.194Z,54.90
2018-08-06T16:48:37.397Z,54.80
2018-08-06T16:51:11.830Z,54.70
2018-08-06T16:53:47.029Z,56.10
2018-08-06T16:56:22.235Z,58.20
2018-08-06T17:01:31.945Z,56.10
2018-08-06T17:04:06.889Z,56.10
2018-08-06T17:06:41.695Z,55.60
2018-08-06T17:14:10.781Z,55.80
2018-08-06T17:16:45.640Z,56.90
2018-08-06T17:19:20.661Z,59.00
2018-08-06T17:21:55.609Z,58.10
2018-08-06T17:24:31.362Z,58.40
2018-08-06T17:27:06.645Z,58.50
2018-08-06T17:32:18.495Z,60.20
2018-08-06T17:34:53.672Z,61.70
2018-08-06T17:37:29.546Z,61.80
2018-08-06T17:40:10.722Z,63.00
2018-08-06T17:42:46.379Z,63.60
2018-08-06T17:45:23.455Z,66.10
2018-08-06T17:47:59.196Z,65.40
2018-08-06T17:50:35.167Z,65.60
2018-08-06T17:53:11.619Z,67.20
2018-08-06T17:55:47.491Z,66.00
2018-08-06T17:58:22.294Z,69.00
2018-08-06T18:00:57.528Z,68.80
2018-08-06T18:03:32.994Z,70.60
2018-08-06T18:06:07.802Z,73.10
2018-08-06T18:08:42.974Z,75.30
2018-08-06T18:11:17.865Z,74.90
2018-08-06T18:13:53.386Z,76.60
2018-08-06T18:16:28.970Z,76.50
2018-08-06T18:19:04.315Z,77.60
2018-08-06T18:21:39.757Z,76.90
2018-08-06T18:24:15.207Z,78.30
2018-08-06T18:26:50.739Z,78.30
2018-08-06T18:29:26.701Z,79.70
2018-08-06T18:32:01.314Z,78.50
2018-08-06T18:34:36.347Z,79.80
2018-08-06T18:37:11.545Z,81.00
2018-08-06T18:39:46.664Z,80.60
2018-08-06T18:42:22.261Z,80.70
2018-08-06T18:44:57.211Z,80.40
2018-08-06T18:47:33.058Z,80.20
2018-08-06T18:50:12.482Z,80.20
2018-08-06T18:52:48.128Z,83.00
2018-08-06T18:55:23.892Z,82.20
2018-08-06T18:57:59.737Z,80.50
2018-08-06T19:00:34.151Z,79.20
2018-08-06T19:03:10.628Z,82.60
2018-08-06T19:05:45.865Z,82.30
2018-08-06T19:08:21.721Z,83.40
2018-08-06T19:10:56.646Z,84.80
2018-08-06T19:13:36.380Z,85.80
2018-08-06T19:18:51.039Z,88.10
2018-08-06T19:21:25.474Z,89.90
2018-08-06T19:24:05.518Z,89.90
2018-08-06T19:26:40.520Z,90.00
2018-08-06T19:29:15.094Z,90.30
2018-08-06T19:31:49.720Z,90.10
2018-08-06T19:34:24.537Z,90.60
2018-08-06T19:37:04.446Z,90.90
2018-08-06T19:42:13.618Z,91.20
2018-08-06T19:44:48.420Z,92.70
2018-08-06T19:47:23.355Z,99.50
2018-08-06T19:50:03.490Z,99.90
2018-08-06T19:57:52.858Z,99.20
2018-08-06T20:00:28.437Z,98.90
2018-08-06T20:03:03.535Z,99.40
2018-08-06T20:05:38.874Z,99.90
2018-08-06T20:08:14.501Z,99.90
2018-08-06T20:13:24.057Z,99.90
2018-08-06T20:16:00.113Z,99.90
2018-08-06T20:18:38.320Z,99.90
2018-08-06T20:21:14.256Z,99.90
2018-08-06T20:23:50.651Z,99.90
2018-08-06T20:26:26.094Z,99.90
2018-08-06T20:29:02.586Z,99.90
2018-08-06T20:31:39.133Z,99.90
2018-08-06T20:36:50.951Z,99.90
2018-08-06T20:39:26.532Z,99.90
2018-08-06T20:42:02.549Z,99.90
2018-08-06T20:44:38.295Z,99.90
2018-08-06T20:47:13.838Z,99.90
2018-08-06T20:49:50.339Z,99.90
2018-08-06T20:52:26.126Z,99.90
2018-08-06T20:55:02.421Z,99.90
2018-08-06T20:57:39.283Z,99.90
2018-08-06T21:00:22.416Z,99.90
2018-08-06T21:02:58.860Z,99.90
2018-08-06T21:05:34.108Z,99.90
2018-08-06T21:08:10.156Z,99.90
2018-08-06T21:10:46.121Z,99.90
2018-08-06T21:13:21.990Z,99.90
2018-08-06T21:15:57.461Z,99.90
2018-08-06T21:18:32.394Z,99.90
2018-08-06T21:21:08.834Z,99.90
2018-08-06T21:23:45.047Z,99.90
2018-08-06T21:26:21.123Z,99.90
2018-08-06T21:28:57.006Z,99.90
2018-08-06T21:31:32.727Z,99.90
2018-08-06T21:34:08.909Z,99.90
2018-08-06T21:36:44.643Z,99.90
2018-08-06T21:39:20.078Z,99.90
2018-08-06T21:44:31.311Z,99.90
2018-08-06T21:47:07.356Z,99.90
2018-08-06T21:52:18.235Z,99.90
2018-08-06T21:54:54.526Z,99.90
2018-08-06T21:57:29.734Z,99.90
2018-08-06T22:00:42.750Z,99.90
2018-08-06T22:03:19.496Z,99.90
2018-08-06T22:05:55.327Z,99.90
2018-08-06T22:08:31.222Z,99.90
2018-08-06T22:11:06.176Z,99.90
2018-08-06T22:13:40.864Z,99.90
2018-08-06T22:16:15.744Z,99.90
2018-08-06T22:18:50.468Z,99.90
2018-08-06T22:21:25.346Z,99.90
2018-08-06T22:24:00.276Z,99.90
2018-08-06T22:26:35.649Z,99.90
2018-08-06T22:29:10.485Z,99.90
2018-08-06T22:31:45.676Z,99.90
2018-08-06T22:34:20.335Z,99.90
2018-08-06T22:36:56.213Z,99.90
2018-08-06T22:39:31.226Z,99.90
2018-08-06T22:42:06.340Z,99.90
2018-08-06T22:44:41.313Z,99.90
2018-08-06T22:47:16.101Z,99.90
2018-08-06T22:49:51.109Z,99.90
2018-08-06T22:57:35.721Z,99.90
2018-08-06T23:00:13.336Z,99.90
2018-08-06T23:02:48.643Z,99.90
2018-08-06T23:05:23.811Z,99.90
2018-08-06T23:07:59.700Z,99.90
2018-08-06T23:10:34.845Z,99.90
2018-08-06T23:13:10.029Z,99.90
2018-08-06T23:15:45.551Z,99.90
2018-08-06T23:18:20.922Z,99.90
2018-08-06T23:20:55.869Z,99.90
2018-08-06T23:23:31.907Z,99.90
2018-08-06T23:26:08.370Z,99.90
2018-08-06T23:28:45.964Z,99.90
2018-08-06T23:31:22.709Z,99.90
2018-08-06T23:33:58.977Z,99.90
2018-08-06T23:36:36.597Z,99.90
2018-08-06T23:39:12.303Z,99.90
2018-08-06T23:41:48.602Z,99.90
2018-08-06T23:44:25.538Z,99.90
2018-08-06T23:47:00.738Z,99.90
2018-08-06T23:49:36.372Z,99.90
2018-08-06T23:52:12.026Z,99.90
2018-08-06T23:54:47.416Z,99.90
2018-08-06T23:57:23.212Z,99.90
2018-08-06T23:59:58.838Z,99.90
